Time;durP1;ratioP1;P1;durP2;ratioP2;P2;SDS_P1;SDS_P2;PMS_P1;PMS_P2;Temp;Humidity;BMP_temperature;BMP_pressure;BME280_temperature;BME280_humidity;BME280_pressure;Samples;Min_cycle;Max_cycle;Signal;HPM_P1;HPM_P2
2023/10/23 00:01:38;;;;;;;7.00;5.20;;;11.80;99.90;;;;;;5052630;28;20226;-71
2023/10/23 00:04:04;;;;;;;5.40;5.03;;;11.90;99.90;;;;;;5052039;28;20233;-71
2023/10/23 00:06:29;;;;;;;6.53;5.00;;;11.80;99.90;;;;;;5052626;28;20190;-72
2023/10/23 00:08:55;;;;;;;5.53;5.00;;;11.80;99.90;;;;;;5052161;28;20182;-71
2023/10/23 00:11:24;;;;;;;7.47;5.30;;;11.80;99.90;;;;;;5052194;28;20207;-71
2023/10/23 00:13:49;;;;;;;6.80;5.97;;;11.70;99.90;;;;;;5052030;28;20225;-71
2023/10/23 00:16:15;;;;;;;5.47;5.00;;;11.60;99.90;;;;;;5034610;28;20206;-71
2023/10/23 00:18:40;;;;;;;7.47;5.40;;;11.60;99.90;;;;;;5052540;28;20183;-71
2023/10/23 00:21:07;;;;;;;8.90;5.10;;;11.50;99.90;;;;;;5052163;28;20592;-71
2023/10/23 00:23:33;;;;;;;5.80;5.20;;;11.40;99.90;;;;;;5051645;28;20297;-71
2023/10/23 00:25:58;;;;;;;7.20;4.97;;;11.30;99.90;;;;;;5052127;28;20592;-71
2023/10/23 00:28:24;;;;;;;9.30;5.47;;;11.20;99.90;;;;;;5052144;28;20514;-71
2023/10/23 00:30:49;;;;;;;7.47;5.07;;;11.10;99.90;;;;;;5052169;28;20206;-71
2023/10/23 00:33:15;;;;;;;6.00;5.40;;;11.00;99.90;;;;;;5051787;28;20182;-71
2023/10/23 00:35:41;;;;;;;5.87;5.37;;;10.90;99.90;;;;;;5051935;28;20198;-70
2023/10/23 00:38:06;;;;;;;8.67;5.37;;;10.80;99.90;;;;;;5051942;28;20257;-72
2023/10/23 00:40:32;;;;;;;7.13;5.40;;;10.80;99.90;;;;;;5051782;28;20722;-72
2023/10/23 00:42:57;;;;;;;8.53;5.03;;;10.80;99.90;;;;;;5051336;28;20175;-72
2023/10/23 00:45:23;;;;;;;5.50;5.00;;;10.70;99.90;;;;;;5051742;28;20191;-71
2023/10/23 00:47:49;;;;;;;6.10;5.43;;;10.70;99.90;;;;;;5051777;28;20182;-70
2023/10/23 00:50:15;;;;;;;6.13;5.53;;;10.60;99.90;;;;;;5051239;28;20258;-71
2023/10/23 00:52:42;;;;;;;5.57;5.07;;;10.60;99.90;;;;;;5051282;28;20214;-71
2023/10/23 00:55:08;;;;;;;6.00;5.40;;;10.60;99.90;;;;;;5051313;28;20187;-71
2023/10/23 00:57:34;;;;;;;7.93;5.50;;;10.50;99.90;;;;;;5051552;28;20182;-71
2023/10/23 01:00:00;;;;;;;5.93;5.10;;;10.50;99.90;;;;;;5051566;28;20179;-71
2023/10/23 01:02:26;;;;;;;7.13;5.13;;;10.40;99.90;;;;;;5051434;28;20647;-71
2023/10/23 01:04:52;;;;;;;7.27;5.63;;;10.40;99.90;;;;;;5051473;28;20230;-71
2023/10/23 01:07:18;;;;;;;5.93;5.33;;;10.40;99.90;;;;;;5051446;28;20629;-71
2023/10/23 01:09:43;;;;;;;5.20;4.70;;;10.30;99.90;;;;;;5051453;28;20237;-71
2023/10/23 01:12:09;;;;;;;5.83;5.33;;;10.30;99.90;;;;;;5051050;28;20210;-71
2023/10/23 01:14:35;;;;;;;6.30;5.37;;;10.30;99.90;;;;;;5050955;28;20210;-71
2023/10/23 01:17:00;;;;;;;6.30;5.70;;;10.20;99.90;;;;;;5050962;28;20171;-71
2023/10/23 01:19:26;;;;;;;7.00;5.77;;;10.20;99.90;;;;;;5051113;28;20182;-70
2023/10/23 01:21:51;;;;;;;6.03;5.53;;;10.10;99.90;;;;;;5051281;28;20400;-71
2023/10/23 01:24:19;;;;;;;6.47;5.37;;;10.10;99.90;;;;;;5050374;28;20273;-70
2023/10/23 01:26:45;;;;;;;7.37;5.80;;;10.10;99.90;;;;;;5051226;28;20365;-71
2023/10/23 01:29:11;;;;;;;11.00;6.47;;;10.00;99.90;;;;;;5051092;28;20299;-70
2023/10/23 01:31:36;;;;;;;7.77;5.63;;;10.00;99.90;;;;;;5051003;28;20202;-71
2023/10/23 01:34:02;;;;;;;7.00;5.40;;;9.90;99.90;;;;;;5050355;28;20682;-71
2023/10/23 01:36:28;;;;;;;6.10;5.50;;;9.80;99.90;;;;;;5051020;28;20193;-71
2023/10/23 01:38:54;;;;;;;6.10;5.60;;;9.80;99.90;;;;;;5050891;28;20170;-71
2023/10/23 01:41:20;;;;;;;6.97;5.77;;;9.80;99.90;;;;;;5050927;28;20175;-71
2023/10/23 01:43:46;;;;;;;8.10;5.67;;;9.80;99.90;;;;;;5050624;28;20274;-70
2023/10/23 01:46:11;;;;;;;8.33;6.00;;;9.70;99.90;;;;;;5050974;28;20635;-71
2023/10/23 01:48:37;;;;;;;6.30;5.80;;;9.70;99.90;;;;;;5051012;28;20551;-71
2023/10/23 01:51:03;;;;;;;8.37;5.90;;;9.60;99.90;;;;;;5050404;28;20202;-71
2023/10/23 01:53:28;;;;;;;6.43;5.70;;;9.60;99.90;;;;;;5050497;28;20190;-72
2023/10/23 01:55:55;;;;;;;5.43;4.93;;;9.50;99.90;;;;;;5050749;28;20177;-72
2023/10/23 01:58:20;;;;;;;6.10;5.60;;;9.50;99.90;;;;;;5050899;28;20650;-72
2023/10/23 02:00:46;;;;;;;11.57;5.83;;;9.40;99.90;;;;;;5050821;28;20250;-72
2023/10/23 02:03:11;;;;;;;5.80;5.30;;;9.40;99.90;;;;;;5050205;28;20551;-72
2023/10/23 02:05:37;;;;;;;6.67;6.07;;;9.30;99.90;;;;;;5050644;28;20185;-72
2023/10/23 02:08:03;;;;;;;6.63;5.20;;;9.30;99.90;;;;;;5050687;28;20643;-72
2023/10/23 02:10:29;;;;;;;6.40;5.83;;;9.20;99.90;;;;;;5050960;28;20201;-72
2023/10/23 02:12:54;;;;;;;6.83;5.67;;;9.20;99.90;;;;;;5050562;28;20198;-72
2023/10/23 02:15:20;;;;;;;6.03;5.53;;;9.20;99.90;;;;;;5050489;28;20210;-71
2023/10/23 02:17:45;;;;;;;6.90;6.20;;;9.10;99.90;;;;;;5050941;28;20182;-71
2023/10/23 02:20:11;;;;;;;10.60;6.10;;;9.10;99.90;;;;;;5050802;28;20674;-71
2023/10/23 02:22:37;;;;;;;7.40;5.53;;;9.10;99.90;;;;;;5050652;28;20652;-71
2023/10/23 02:25:03;;;;;;;8.67;5.70;;;9.00;99.90;;;;;;5050775;28;20220;-71
2023/10/23 02:27:29;;;;;;;6.50;5.90;;;8.90;99.90;;;;;;5051100;28;20178;-71
2023/10/23 02:29:54;;;;;;;7.43;6.07;;;8.90;99.90;;;;;;5050681;28;20554;-71
2023/10/23 02:32:20;;;;;;;8.07;5.90;;;8.90;99.90;;;;;;5050600;28;20234;-71
2023/10/23 02:34:47;;;;;;;10.90;6.03;;;8.90;99.90;;;;;;5051119;28;20206;-71
2023/10/23 02:37:13;;;;;;;6.20;5.63;;;8.80;99.90;;;;;;5054387;28;20171;-72
2023/10/23 02:39:39;;;;;;;6.47;5.93;;;8.70;99.90;;;;;;5054443;28;20221;-72
2023/10/23 02:42:05;;;;;;;8.10;6.13;;;8.60;99.90;;;;;;5054080;28;20549;-72
2023/10/23 02:44:30;;;;;;;7.63;6.90;;;8.60;99.90;;;;;;5054165;28;20187;-71
2023/10/23 02:46:56;;;;;;;7.37;6.23;;;8.60;99.90;;;;;;5054429;28;20585;-71
2023/10/23 02:49:23;;;;;;;8.70;6.07;;;8.50;99.90;;;;;;5054486;28;20175;-71
2023/10/23 02:51:48;;;;;;;7.87;5.50;;;8.50;99.90;;;;;;5054118;28;20198;-71
2023/10/23 02:54:14;;;;;;;6.97;6.27;;;8.40;99.90;;;;;;5053463;28;20207;-71
2023/10/23 02:56:40;;;;;;;7.03;6.33;;;8.40;99.90;;;;;;5054641;28;20178;-70
2023/10/23 02:59:06;;;;;;;12.17;7.00;;;8.40;99.90;;;;;;5053921;28;20202;-71
2023/10/23 03:01:32;;;;;;;8.80;6.70;;;8.40;99.90;;;;;;5054161;28;20182;-70
2023/10/23 03:03:57;;;;;;;7.97;6.77;;;8.40;99.90;;;;;;5053884;28;20195;-71
2023/10/23 03:06:23;;;;;;;9.37;7.03;;;8.40;99.90;;;;;;5053926;28;20632;-71
2023/10/23 03:08:48;;;;;;;11.20;7.33;;;8.30;99.90;;;;;;5053786;28;20266;-72
2023/10/23 03:11:14;;;;;;;9.60;7.73;;;8.30;99.90;;;;;;5053611;28;20217;-71
2023/10/23 03:13:40;;;;;;;8.23;7.30;;;8.30;99.90;;;;;;5053593;28;20195;-71
2023/10/23 03:16:05;;;;;;;8.57;7.27;;;8.40;99.90;;;;;;5053797;28;20173;-72
2023/10/23 03:18:31;;;;;;;10.23;7.30;;;8.40;99.90;;;;;;5053198;28;20202;-71
2023/10/23 03:21:00;;;;;;;11.53;7.33;;;8.40;99.90;;;;;;5053806;28;20175;-71
2023/10/23 03:23:27;;;;;;;9.30;6.80;;;8.30;99.90;;;;;;5052782;28;20206;-72
2023/10/23 03:25:52;;;;;;;12.07;7.70;;;8.30;99.90;;;;;;5053555;28;20179;-72
2023/10/23 03:28:18;;;;;;;13.03;6.90;;;8.30;99.90;;;;;;5053566;28;20644;-72
2023/10/23 03:30:44;;;;;;;8.13;7.33;;;8.30;99.90;;;;;;5053641;28;20183;-71
2023/10/23 03:33:09;;;;;;;12.73;7.60;;;8.40;99.90;;;;;;5052798;28;20186;-71
2023/10/23 03:35:41;;;;;;;11.67;8.00;;;8.30;99.90;;;;;;5053036;28;20183;-72
2023/10/23 03:38:07;;;;;;;10.87;8.07;;;8.30;99.90;;;;;;5033478;28;20187;-72
2023/10/23 03:40:32;;;;;;;10.73;7.80;;;8.30;99.90;;;;;;5033322;28;20403;-71
2023/10/23 03:42:58;;;;;;;13.93;8.10;;;8.30;99.90;;;;;;5032995;28;20179;-71
2023/10/23 03:45:23;;;;;;;8.63;7.13;;;8.30;99.90;;;;;;5033146;28;20286;-71
2023/10/23 03:47:49;;;;;;;9.70;7.33;;;8.30;99.90;;;;;;5032758;28;20163;-71
2023/10/23 03:50:15;;;;;;;9.27;7.10;;;8.30;99.90;;;;;;5033024;28;20183;-72
2023/10/23 03:52:40;;;;;;;16.47;7.93;;;8.30;99.90;;;;;;5052600;28;20256;-71
2023/10/23 03:55:06;;;;;;;10.03;7.90;;;8.30;99.90;;;;;;5052800;28;20218;-71
2023/10/23 03:57:32;;;;;;;13.17;7.63;;;8.30;99.90;;;;;;5053031;28;20725;-71
2023/10/23 03:59:57;;;;;;;10.37;7.33;;;8.30;99.90;;;;;;5052863;28;20305;-72
2023/10/23 04:02:24;;;;;;;10.07;7.77;;;8.30;99.90;;;;;;5052759;28;20209;-72
2023/10/23 04:04:49;;;;;;;8.63;7.43;;;8.30;99.90;;;;;;5052480;28;20271;-71
2023/10/23 04:07:15;;;;;;;12.27;7.73;;;8.30;99.90;;;;;;5051943;28;20183;-71
2023/10/23 04:09:40;;;;;;;9.37;7.70;;;8.20;99.90;;;;;;5052803;28;20225;-71
2023/10/23 04:12:07;;;;;;;10.10;7.50;;;8.20;99.90;;;;;;5034867;28;20214;-71
2023/10/23 04:14:32;;;;;;;15.57;8.93;;;8.20;99.90;;;;;;5053034;28;20191;-70
2023/10/23 04:16:58;;;;;;;10.57;7.97;;;8.20;99.90;;;;;;5052749;28;20581;-70
2023/10/23 04:19:23;;;;;;;12.40;9.73;;;8.30;99.90;;;;;;5052573;28;20167;-70
2023/10/23 04:21:49;;;;;;;14.13;9.30;;;8.30;99.90;;;;;;5052506;28;20292;-71
2023/10/23 04:24:14;;;;;;;9.23;8.23;;;8.30;99.90;;;;;;5052225;28;20281;-70
2023/10/23 04:26:40;;;;;;;13.97;8.73;;;8.40;99.90;;;;;;5052277;28;20639;-71
2023/10/23 04:29:06;;;;;;;17.47;8.40;;;8.40;99.90;;;;;;5052074;28;20175;-71
2023/10/23 04:31:31;;;;;;;12.70;8.67;;;8.30;99.90;;;;;;5052349;28;20675;-71
2023/10/23 04:33:57;;;;;;;13.07;9.10;;;8.30;99.90;;;;;;5051914;28;20218;-71
2023/10/23 04:36:22;;;;;;;13.43;8.87;;;8.30;99.90;;;;;;5052061;28;20201;-72
2023/10/23 04:38:48;;;;;;;14.90;8.73;;;8.20;99.90;;;;;;5052327;28;20171;-71
2023/10/23 04:41:14;;;;;;;18.23;8.83;;;8.20;99.90;;;;;;5052122;28;20534;-72
2023/10/23 04:43:39;;;;;;;9.90;7.87;;;8.20;99.90;;;;;;5051802;28;20195;-72
2023/10/23 04:46:05;;;;;;;20.03;8.67;;;8.20;99.90;;;;;;5051849;28;20174;-72
2023/10/23 04:48:31;;;;;;;17.03;9.90;;;8.20;99.90;;;;;;5051913;28;20607;-72
2023/10/23 04:50:59;;;;;;;9.87;8.87;;;8.10;99.90;;;;;;5051930;28;20205;-71
2023/10/23 04:53:26;;;;;;;10.93;8.77;;;8.00;99.90;;;;;;5051443;28;20675;-70
2023/10/23 04:55:52;;;;;;;23.43;10.27;;;8.10;99.90;;;;;;5051985;28;20175;-70
2023/10/23 04:58:18;;;;;;;21.87;10.30;;;8.10;99.90;;;;;;5050634;28;20174;-72
2023/10/23 05:00:44;;;;;;;15.33;9.67;;;8.10;99.90;;;;;;5051041;28;20257;-71
2023/10/23 05:03:10;;;;;;;15.77;9.47;;;8.10;99.90;;;;;;5050549;28;20178;-71
2023/10/23 05:05:36;;;;;;;12.47;9.27;;;8.20;99.90;;;;;;5051550;28;20175;-71
2023/10/23 05:08:03;;;;;;;23.50;10.67;;;8.20;99.90;;;;;;5051781;28;20523;-71
2023/10/23 05:10:29;;;;;;;11.93;9.53;;;8.20;99.90;;;;;;5051559;28;20175;-71
2023/10/23 05:12:56;;;;;;;18.90;9.60;;;8.20;99.90;;;;;;5051080;28;20214;-71
2023/10/23 05:15:22;;;;;;;17.03;10.13;;;8.10;99.90;;;;;;5051625;28;20199;-71
2023/10/23 05:17:47;;;;;;;17.17;9.83;;;8.10;99.90;;;;;;5051696;28;20225;-71
2023/10/23 05:20:13;;;;;;;18.07;10.70;;;8.10;99.90;;;;;;5051390;28;20202;-71
2023/10/23 05:22:39;;;;;;;18.10;10.47;;;8.10;99.90;;;;;;5051302;28;20659;-72
2023/10/23 05:25:04;;;;;;;16.37;11.53;;;8.10;99.90;;;;;;5051250;28;20198;-71
2023/10/23 05:27:30;;;;;;;19.07;10.07;;;8.10;99.90;;;;;;5050945;28;20190;-71
2023/10/23 05:29:56;;;;;;;20.43;11.60;;;8.10;99.90;;;;;;5051056;28;20187;-71
2023/10/23 05:32:21;;;;;;;16.70;10.30;;;8.10;99.90;;;;;;5050789;28;20569;-71
2023/10/23 05:34:47;;;;;;;16.57;10.90;;;8.10;99.90;;;;;;5050472;28;20206;-71
2023/10/23 05:37:13;;;;;;;15.53;10.87;;;8.10;99.90;;;;;;5050884;28;20640;-71
2023/10/23 05:39:39;;;;;;;19.17;10.53;;;8.20;99.90;;;;;;5051291;28;20178;-71
2023/10/23 05:42:05;;;;;;;16.63;10.77;;;8.20;99.90;;;;;;5051032;28;20186;-71
2023/10/23 05:44:31;;;;;;;13.60;10.33;;;8.10;99.90;;;;;;5050578;28;20206;-71
2023/10/23 05:46:56;;;;;;;15.30;10.13;;;8.00;99.90;;;;;;5050444;28;20221;-72
2023/10/23 05:49:22;;;;;;;13.77;10.70;;;8.00;99.90;;;;;;5050189;28;20185;-71
2023/10/23 05:51:47;;;;;;;12.17;9.90;;;8.00;99.90;;;;;;5032633;28;20650;-71
2023/10/23 05:54:14;;;;;;;15.47;10.07;;;7.90;99.90;;;;;;5050837;28;20574;-71
2023/10/23 05:56:40;;;;;;;17.97;11.00;;;7.90;99.90;;;;;;5050990;28;20177;-71
2023/10/23 05:59:06;;;;;;;19.93;11.83;;;7.80;99.90;;;;;;5050457;28;20190;-71
2023/10/23 06:01:31;;;;;;;15.20;11.30;;;7.80;99.90;;;;;;5050091;28;20225;-71
2023/10/23 06:03:57;;;;;;;16.27;10.40;;;7.70;99.90;;;;;;5049735;28;20223;-71
2023/10/23 06:06:22;;;;;;;19.30;11.10;;;7.70;99.90;;;;;;5050302;28;20520;-71
2023/10/23 06:08:48;;;;;;;17.90;11.03;;;7.60;99.90;;;;;;5050526;28;20185;-71
2023/10/23 06:11:14;;;;;;;22.00;11.27;;;7.60;99.90;;;;;;5052463;28;20209;-71
2023/10/23 06:13:39;;;;;;;24.90;11.60;;;7.60;99.90;;;;;;5053803;28;20252;-72
2023/10/23 06:16:06;;;;;;;20.77;11.10;;;7.60;99.90;;;;;;5054556;28;20186;-72
2023/10/23 06:18:36;;;;;;;20.90;11.80;;;7.60;99.90;;;;;;5054670;28;20679;-70
2023/10/23 06:21:03;;;;;;;23.73;12.20;;;7.70;99.90;;;;;;5054568;28;20183;-71
2023/10/23 06:23:34;;;;;;;16.73;12.70;;;7.70;99.90;;;;;;5053838;28;20203;-71
2023/10/23 06:26:00;;;;;;;23.07;12.80;;;7.70;99.90;;;;;;5054187;28;20201;-70
2023/10/23 06:28:26;;;;;;;19.10;12.60;;;7.80;99.90;;;;;;5054109;28;20213;-71
2023/10/23 06:30:52;;;;;;;16.27;11.60;;;7.90;99.90;;;;;;5054303;28;20469;-71
2023/10/23 06:33:18;;;;;;;20.77;11.80;;;8.00;99.90;;;;;;5053585;28;20706;-71
2023/10/23 06:35:44;;;;;;;19.33;11.50;;;8.00;99.90;;;;;;5053239;28;20221;-71
2023/10/23 06:38:10;;;;;;;17.60;10.73;;;8.00;99.90;;;;;;5053520;28;20174;-71
2023/10/23 06:40:35;;;;;;;25.83;11.40;;;8.10;99.90;;;;;;5053308;28;20539;-71
2023/10/23 06:43:01;;;;;;;18.37;11.40;;;8.20;99.90;;;;;;5053150;28;20733;-72
2023/10/23 06:45:26;;;;;;;19.90;11.00;;;8.20;99.90;;;;;;5053564;28;20212;-71
2023/10/23 06:47:52;;;;;;;16.07;10.70;;;8.30;99.90;;;;;;5053235;28;20691;-71
2023/10/23 06:50:18;;;;;;;17.83;9.70;;;8.40;99.90;;;;;;5052695;28;20179;-71
2023/10/23 06:52:44;;;;;;;19.30;10.13;;;8.40;99.90;;;;;;5053587;28;20233;-71
2023/10/23 06:55:10;;;;;;;16.83;9.67;;;8.50;99.90;;;;;;5053673;28;20604;-71
2023/10/23 06:57:36;;;;;;;16.93;10.63;;;8.60;99.90;;;;;;5053477;28;20171;-71
2023/10/23 07:00:02;;;;;;;19.73;10.40;;;8.60;99.90;;;;;;5053811;28;20174;-71
2023/10/23 07:02:28;;;;;;;16.33;10.80;;;8.70;99.90;;;;;;5053409;28;20182;-71
2023/10/23 07:04:53;;;;;;;14.83;10.03;;;8.70;99.90;;;;;;5068636;28;20194;-71
2023/10/23 07:07:19;;;;;;;13.97;10.37;;;8.80;99.90;;;;;;5053404;28;20225;-71
2023/10/23 07:09:45;;;;;;;17.50;11.17;;;8.80;99.90;;;;;;5052914;28;20178;-72
2023/10/23 07:12:11;;;;;;;14.90;12.03;;;9.00;99.90;;;;;;5052442;28;20217;-71
2023/10/23 07:14:37;;;;;;;14.97;11.50;;;9.10;99.90;;;;;;5051877;28;20190;-71
2023/10/23 07:17:02;;;;;;;20.77;11.93;;;9.40;99.90;;;;;;5052384;28;20171;-71
2023/10/23 07:19:28;;;;;;;22.60;11.00;;;9.60;99.90;;;;;;5052021;28;20186;-72
2023/10/23 07:21:54;;;;;;;17.13;10.93;;;9.80;99.90;;;;;;5051166;28;20183;-72
2023/10/23 07:24:19;;;;;;;15.63;11.13;;;10.10;99.90;;;;;;5051126;28;20190;-72
2023/10/23 07:26:45;;;;;;;16.80;10.63;;;10.40;99.90;;;;;;5052530;28;20179;-71
2023/10/23 07:29:10;;;;;;;15.63;10.90;;;10.50;99.90;;;;;;5067470;28;20224;-71
2023/10/23 07:31:39;;;;;;;16.67;10.57;;;10.70;99.90;;;;;;5052332;28;20260;-72
2023/10/23 07:34:05;;;;;;;18.13;10.40;;;10.80;99.90;;;;;;5052489;28;20668;-71
2023/10/23 07:36:31;;;;;;;18.83;11.07;;;11.10;99.90;;;;;;5052834;28;20197;-72
2023/10/23 07:38:56;;;;;;;15.87;9.90;;;11.30;99.90;;;;;;5052665;28;20179;-72
2023/10/23 07:41:22;;;;;;;16.90;10.33;;;11.40;99.90;;;;;;5052691;28;20547;-71
2023/10/23 07:43:47;;;;;;;11.40;10.00;;;11.50;99.90;;;;;;5043564;28;20211;-71
2023/10/23 07:46:13;;;;;;;15.73;10.03;;;11.70;99.90;;;;;;5032945;28;20369;-71
2023/10/23 07:48:39;;;;;;;13.23;9.87;;;12.00;99.90;;;;;;5033025;28;20180;-71
2023/10/23 07:51:06;;;;;;;9.53;8.20;;;12.20;99.90;;;;;;5033065;28;20178;-71
2023/10/23 07:53:32;;;;;;;12.60;9.37;;;12.30;99.90;;;;;;5032535;28;20237;-72
2023/10/23 07:55:59;;;;;;;16.77;8.57;;;12.30;99.90;;;;;;5032937;28;20263;-71
2023/10/23 07:58:25;;;;;;;12.43;8.70;;;12.30;99.90;;;;;;5044742;28;20178;-72
2023/10/23 08:00:53;;;;;;;9.53;8.60;;;12.40;99.90;;;;;;5052495;28;20167;-72
2023/10/23 08:03:19;;;;;;;14.83;9.00;;;12.50;99.90;;;;;;5032020;28;20199;-71
2023/10/23 08:05:46;;;;;;;8.37;7.30;;;12.60;99.90;;;;;;5033009;28;20171;-71
2023/10/23 08:08:12;;;;;;;9.40;7.57;;;12.70;99.90;;;;;;5032727;28;20200;-71
2023/10/23 08:10:37;;;;;;;10.03;8.23;;;12.80;99.90;;;;;;5032299;28;20203;-71
2023/10/23 08:13:03;;;;;;;10.10;8.00;;;13.00;99.90;;;;;;5032257;28;20692;-72
2023/10/23 08:15:29;;;;;;;11.03;8.07;;;13.20;99.90;;;;;;5032603;28;20673;-71
2023/10/23 08:17:55;;;;;;;7.97;7.27;;;13.40;99.90;;;;;;5051707;28;20225;-71
2023/10/23 08:20:20;;;;;;;11.83;8.07;;;13.60;99.90;;;;;;5052285;28;20229;-71
2023/10/23 08:22:46;;;;;;;8.00;6.70;;;13.80;99.90;;;;;;5052081;28;20632;-71
2023/10/23 08:25:12;;;;;;;7.17;6.43;;;13.70;99.90;;;;;;5052097;28;20229;-71
2023/10/23 08:27:37;;;;;;;9.13;7.70;;;13.80;99.90;;;;;;5052089;28;20210;-71
2023/10/23 08:30:04;;;;;;;9.20;8.03;;;13.90;99.90;;;;;;5052065;28;20205;-71
2023/10/23 08:32:30;;;;;;;12.00;7.63;;;13.70;99.90;;;;;;5051789;28;20245;-71
2023/10/23 08:34:56;;;;;;;10.10;8.27;;;13.40;99.90;;;;;;5040280;28;20658;-71
2023/10/23 08:37:21;;;;;;;11.00;9.50;;;13.20;99.90;;;;;;5048894;28;20182;-71
2023/10/23 08:39:47;;;;;;;9.53;8.53;;;13.00;99.90;;;;;;5051526;28;20208;-71
2023/10/23 08:42:13;;;;;;;10.17;7.83;;;12.80;99.90;;;;;;5033081;28;20204;-71
2023/10/23 08:44:39;;;;;;;9.67;8.70;;;12.50;99.90;;;;;;5051308;28;20195;-71
2023/10/23 08:47:05;;;;;;;10.90;9.10;;;12.40;99.90;;;;;;5052164;28;20175;-71
2023/10/23 08:49:30;;;;;;;16.40;9.30;;;12.30;99.90;;;;;;5051832;28;20178;-71
2023/10/23 08:51:59;;;;;;;13.70;9.23;;;12.10;99.90;;;;;;5051216;28;20229;-71
2023/10/23 08:54:26;;;;;;;12.37;9.73;;;12.00;99.90;;;;;;5051364;28;20243;-71
2023/10/23 08:57:11;;;;;;;13.57;10.20;;;12.00;99.90;;;;;;5051489;28;20179;-71
2023/10/23 08:59:41;;;;;;;11.07;9.03;;;12.10;99.90;;;;;;5051383;28;20256;-71
2023/10/23 09:02:08;;;;;;;11.57;9.23;;;12.20;99.90;;;;;;5051426;28;20171;-71
2023/10/23 09:04:34;;;;;;;12.60;10.20;;;12.30;99.90;;;;;;5051174;28;20572;-72
2023/10/23 09:07:00;;;;;;;12.70;9.77;;;12.40;99.90;;;;;;5051484;28;20167;-71
2023/10/23 09:09:26;;;;;;;16.37;10.63;;;12.50;99.90;;;;;;5051455;28;20597;-72
2023/10/23 09:11:52;;;;;;;13.13;10.37;;;12.60;99.90;;;;;;5051089;28;20573;-72
2023/10/23 09:14:25;;;;;;;12.47;9.83;;;12.70;99.90;;;;;;5051134;28;20190;-72
2023/10/23 09:16:53;;;;;;;12.60;9.70;;;12.70;99.90;;;;;;5051398;28;20178;-71
2023/10/23 09:19:24;;;;;;;11.20;9.97;;;12.70;99.90;;;;;;5051118;28;20178;-72
2023/10/23 09:21:53;;;;;;;10.63;9.53;;;12.90;99.90;;;;;;5051409;28;20190;-71
2023/10/23 09:24:19;;;;;;;12.27;9.70;;;12.90;99.90;;;;;;5050824;28;20252;-72
2023/10/23 09:26:45;;;;;;;12.20;8.83;;;13.00;99.90;;;;;;5051799;28;20175;-71
2023/10/23 09:29:10;;;;;;;12.20;9.60;;;13.00;99.90;;;;;;5051211;28;20270;-72
2023/10/23 09:31:40;;;;;;;15.97;9.90;;;12.90;99.90;;;;;;5050953;28;20260;-72
2023/10/23 09:34:07;;;;;;;9.83;8.83;;;12.90;99.90;;;;;;5050995;28;20191;-72
2023/10/23 09:36:33;;;;;;;11.63;9.37;;;13.00;99.90;;;;;;5049671;28;20194;-72
2023/10/23 09:39:00;;;;;;;15.63;9.00;;;13.00;99.90;;;;;;5050800;28;20205;-72
2023/10/23 09:41:27;;;;;;;11.03;7.87;;;13.00;99.90;;;;;;5050740;28;20194;-72
2023/10/23 09:43:55;;;;;;;10.60;8.40;;;13.00;99.90;;;;;;5050473;28;20190;-72
2023/10/23 09:46:24;;;;;;;8.97;8.00;;;13.00;99.90;;;;;;5050644;28;20179;-72
2023/10/23 09:48:51;;;;;;;10.83;8.83;;;12.90;99.90;;;;;;5051174;28;20178;-70
2023/10/23 09:51:19;;;;;;;10.50;8.67;;;12.90;99.90;;;;;;5050837;28;20651;-72
2023/10/23 09:54:01;;;;;;;11.27;8.90;;;12.90;99.90;;;;;;5050410;28;20655;-72
2023/10/23 09:56:30;;;;;;;9.63;7.60;;;12.80;99.90;;;;;;5050961;28;20182;-71
2023/10/23 09:59:04;;;;;;;8.70;7.40;;;12.90;99.90;;;;;;5051100;28;20167;-71
2023/10/23 10:01:40;;;;;;;8.97;7.23;;;12.90;99.90;;;;;;5050268;28;20218;-73
2023/10/23 10:04:17;;;;;;;8.90;7.47;;;13.10;99.90;;;;;;5050430;28;20198;-72
2023/10/23 10:06:49;;;;;;;7.80;7.03;;;13.30;99.90;;;;;;5050911;28;20540;-71
2023/10/23 10:09:15;;;;;;;7.47;6.70;;;13.40;99.90;;;;;;5051022;28;20252;-71
2023/10/23 10:11:43;;;;;;;6.97;6.37;;;13.50;99.90;;;;;;5050514;28;20205;-71
2023/10/23 10:14:09;;;;;;;10.40;6.77;;;13.60;99.90;;;;;;5050597;28;20198;-70
2023/10/23 10:16:37;;;;;;;8.00;7.20;;;13.60;99.90;;;;;;5050440;28;20186;-71
2023/10/23 10:19:04;;;;;;;10.53;7.13;;;13.60;99.90;;;;;;5050889;28;20178;-70
2023/10/23 10:21:35;;;;;;;7.30;6.57;;;13.50;99.90;;;;;;5051015;28;20537;-70
2023/10/23 10:24:03;;;;;;;10.70;6.73;;;13.50;99.90;;;;;;5050737;28;20273;-70
2023/10/23 10:26:30;;;;;;;8.07;7.07;;;13.40;99.90;;;;;;5050639;28;20197;-70
2023/10/23 10:28:58;;;;;;;9.27;6.70;;;13.30;99.90;;;;;;5050866;28;20175;-71
2023/10/23 10:31:25;;;;;;;7.37;6.57;;;13.40;99.90;;;;;;5050426;28;20608;-71
2023/10/23 10:33:54;;;;;;;7.43;6.43;;;13.50;99.90;;;;;;5051010;28;20629;-70
2023/10/23 10:36:25;;;;;;;9.50;7.27;;;13.50;99.90;;;;;;5051242;28;20190;-70
2023/10/23 10:38:51;;;;;;;8.63;6.27;;;13.50;99.90;;;;;;5051716;28;20611;-70
2023/10/23 10:41:18;;;;;;;6.93;6.23;;;13.50;99.90;;;;;;5051361;28;20195;-70
2023/10/23 10:43:50;;;;;;;8.70;6.20;;;13.60;99.90;;;;;;5051016;28;20572;-70
2023/10/23 10:46:28;;;;;;;7.50;6.57;;;13.80;99.90;;;;;;5051448;28;20270;-70
2023/10/23 10:48:55;;;;;;;6.27;5.67;;;13.90;99.90;;;;;;5051113;28;20562;-71
2023/10/23 10:51:23;;;;;;;6.47;5.80;;;14.00;99.90;;;;;;5051415;28;20194;-70
2023/10/23 10:54:00;;;;;;;9.67;6.57;;;14.10;99.90;;;;;;5051412;28;20211;-70
2023/10/23 10:56:26;;;;;;;7.70;6.43;;;14.10;99.90;;;;;;5051243;28;20171;-70
2023/10/23 10:58:52;;;;;;;7.77;6.43;;;14.10;99.90;;;;;;5054400;28;20182;-70
2023/10/23 11:01:21;;;;;;;5.97;5.30;;;14.20;99.90;;;;;;5054232;28;20175;-70
2023/10/23 11:03:47;;;;;;;6.60;5.50;;;14.20;99.90;;;;;;5053931;28;20207;-70
2023/10/23 11:06:13;;;;;;;6.00;5.50;;;14.30;99.90;;;;;;5054570;28;20570;-70
2023/10/23 11:08:40;;;;;;;5.57;5.07;;;14.30;99.90;;;;;;5054316;28;20175;-70
2023/10/23 11:11:06;;;;;;;6.13;5.20;;;14.40;99.90;;;;;;5054155;28;20210;-70
2023/10/23 11:13:32;;;;;;;5.27;4.77;;;14.50;99.90;;;;;;5053789;28;20238;-69
2023/10/23 11:15:58;;;;;;;5.30;4.80;;;14.70;99.90;;;;;;5053692;28;20253;-69
2023/10/23 11:18:25;;;;;;;4.90;4.50;;;14.80;99.90;;;;;;5053677;28;20267;-69
2023/10/23 11:20:55;;;;;;;5.40;4.40;;;14.90;99.90;;;;;;5053616;28;20177;-69
2023/10/23 11:23:22;;;;;;;5.03;4.53;;;14.80;99.90;;;;;;5053338;28;20203;-70
2023/10/23 11:25:51;;;;;;;7.07;4.50;;;14.90;99.90;;;;;;5053559;28;20179;-69
2023/10/23 11:28:18;;;;;;;4.60;4.20;;;14.90;99.90;;;;;;5053624;28;20174;-70
2023/10/23 11:30:46;;;;;;;5.10;4.30;;;15.00;99.90;;;;;;5053412;28;20179;-70
2023/10/23 11:33:12;;;;;;;5.47;4.00;;;15.00;99.90;;;;;;5053188;28;20234;-70
2023/10/23 11:35:38;;;;;;;4.27;3.93;;;15.00;99.90;;;;;;5053118;28;20229;-70
2023/10/23 11:38:03;;;;;;;4.40;4.00;;;14.90;99.90;;;;;;5053027;28;20194;-70
2023/10/23 11:40:33;;;;;;;7.77;4.20;;;14.80;99.90;;;;;;5051213;28;20179;-70
2023/10/23 11:42:58;;;;;;;4.43;3.60;;;14.90;99.90;;;;;;5052657;28;20178;-70
2023/10/23 11:45:24;;;;;;;4.83;4.40;;;14.80;99.90;;;;;;5052721;28;20680;-70
2023/10/23 11:47:53;;;;;;;4.50;4.03;;;14.90;99.90;;;;;;5052759;28;20178;-70
2023/10/23 11:50:19;;;;;;;5.77;4.27;;;14.80;99.90;;;;;;5053001;28;20190;-69
2023/10/23 11:52:47;;;;;;;5.93;3.90;;;14.80;99.90;;;;;;5052485;28;20229;-70
2023/10/23 11:55:17;;;;;;;5.90;4.00;;;14.80;99.90;;;;;;5053331;28;20191;-70
2023/10/23 11:57:54;;;;;;;4.90;4.40;;;14.70;99.90;;;;;;5052412;28;20224;-70
2023/10/23 12:00:22;;;;;;;4.50;3.73;;;14.80;99.90;;;;;;5053011;28;20665;-71
2023/10/23 12:02:48;;;;;;;4.10;3.53;;;14.80;99.90;;;;;;5068240;28;20674;-70
2023/10/23 12:05:21;;;;;;;4.50;3.80;;;14.80;99.90;;;;;;5052822;28;20194;-70
2023/10/23 12:07:52;;;;;;;4.17;3.70;;;14.80;99.90;;;;;;5052281;28;20181;-70
2023/10/23 12:10:19;;;;;;;3.90;3.50;;;14.70;99.90;;;;;;5053141;28;20175;-70
2023/10/23 12:12:46;;;;;;;5.90;3.73;;;14.70;99.90;;;;;;5052417;28;20684;-69
2023/10/23 12:15:13;;;;;;;4.97;3.67;;;14.70;99.90;;;;;;5052596;28;20279;-70
2023/10/23 12:17:39;;;;;;;3.90;3.50;;;14.80;99.90;;;;;;5052466;28;20171;-70
2023/10/23 12:20:09;;;;;;;4.83;3.70;;;14.80;99.90;;;;;;5052546;28;20186;-70
2023/10/23 12:22:41;;;;;;;4.40;3.57;;;14.90;99.90;;;;;;5052213;28;20187;-70
2023/10/23 12:25:07;;;;;;;4.27;3.77;;;14.90;99.90;;;;;;5052220;28;20202;-70
2023/10/23 12:27:34;;;;;;;8.07;4.17;;;15.00;99.90;;;;;;5052332;28;20202;-70
2023/10/23 12:30:05;;;;;;;4.23;3.83;;;15.00;99.90;;;;;;5052200;28;20257;-70
2023/10/23 12:32:34;;;;;;;4.10;3.67;;;15.10;99.90;;;;;;5051939;28;20267;-71
2023/10/23 12:35:03;;;;;;;5.57;3.30;;;15.20;99.90;;;;;;5052032;28;20508;-71
2023/10/23 12:37:32;;;;;;;3.63;3.30;;;15.40;99.90;;;;;;5051808;28;20258;-71
2023/10/23 12:40:00;;;;;;;3.30;3.10;;;15.50;99.90;;;;;;5052130;28;20254;-71
2023/10/23 12:42:27;;;;;;;3.57;3.27;;;15.50;99.90;;;;;;5051982;28;20217;-72